Gesamt
Blaubeuren Airport EDMC Wetter
There is no TAF data available at EDMC. Showing TAF data for ETHL (15 mi S).
ETHL Terminal Area Forecast (keine Daten für EDMC)
| Date | Time (CEST) | Flight Rules | Wind Dir. | Speed | Type | Height AGL (ft) | Visibility | Remarks | ||||||
|---|---|---|---|---|---|---|---|---|---|---|---|---|---|---|
There is no METAR data available at EDMC. Showing METAR data for ETHL (15 mi S).
Aktueller METAR-Verlauf ETHL (keine Daten für EDMC)
| Date | Time (CEST) | Flight Rules | Wind Dir. | Speed | Type | Height AGL (ft) | Visibility | Temp (°C) | Temp (°F) | Dew Point (°C) | Dew Point (°F) | Rel. Humid. | Pressure | Density Altitude | Remarks |
|---|---|---|---|---|---|---|---|---|---|---|---|---|---|---|---|
| 05-Sep | 18:20 | VFR | 240° | 10 kt | 10000 meters | 23° | 73° | 15° | 59° | 61% | 1023 mb | 2.674 ft | |||
| 05-Sep | 17:20 | VFR | 280° | 10 kt | 10000 meters | 24° | 75° | 9° | 48° | 38% | 1023 mb | 2.794 ft | |||
| 05-Sep | 16:20 | VFR | 270° | 10 kt | 10000 meters | 24° | 75° | 10° | 50° | 41% | 1023 mb | 2.794 ft | |||
| 05-Sep | 15:20 | VFR | 220° | 9 kt | 10000 meters | 24° | 75° | 12° | 53° | 47% | 1023 mb | 2.794 ft | |||
| 05-Sep | 14:20 | VFR | 240° | 10 kt | 10000 meters | 23° | 73° | 11° | 51° | 47% | 1023 mb | 2.674 ft | |||
| 05-Sep | 13:20 | VFR | 240° | 8 kt | 10000 meters | 21° | 69° | 13° | 55° | 60% | 1024 mb | 2.405 ft | |||
| 05-Sep | 12:20 | VFR | 220° | 9 kt | 10000 meters | 19° | 66° | 14° | 57° | 73% | 1024 mb | 2.165 ft | |||
| 05-Sep | 11:20 | VFR | 230° | 8 kt | 10000 meters | 17° | 62° | 12° | 53° | 72% | 1023 mb | 1.954 ft | |||
| 05-Sep | 10:20 | VFR | 190° | 5 kt | 10000 meters | 16° | 60° | 14° | 57° | 88% | 1023 mb | 1.834 ft | |||
| 05-Sep | 09:20 | VFR | 150° | 4 kt | 10000 meters | 15° | 59° | 14° | 57° | 94% | 1023 mb | 1.714 ft | |||
| 05-Sep | 08:20 | VFR | 40° | 3 kt | 10000 meters | 15° | 59° | 14° | 57° | 94% | 1022 mb | 1.744 ft | |||
| 05-Sep | 07:20 | VFR | 60° | 4 kt | 10000 meters | 16° | 60° | 14° | 57° | 88% | 1022 mb | 1.864 ft | |||
| 05-Sep | 06:20 | VFR | 50° | 9 kt | 10000 meters | 18° | 64° | 14° | 57° | 77% | 1021 mb | 2.133 ft | |||
| 05-Sep | 05:20 | VFR | 350° | 2 kt | 10000 meters | 19° | 66° | 14° | 57° | 73% | 1020 mb | 2.283 ft | |||
| 05-Sep | 04:20 | VFR | 270° | 2 kt | 10000 meters | 20° | 68° | 13° | 55° | 64% | 1019 mb | 2.433 ft | |||
| 05-Sep | 03:20 | VFR | 240° | 3 kt | 10000 meters | 20° | 68° | 14° | 57° | 68% | 1019 mb | 2.433 ft | |||
| 05-Sep | 02:20 | VFR | 200° | 5 kt | 10000 meters | 20° | 68° | 14° | 57° | 68% | 1018 mb | 2.462 ft | |||
| 05-Sep | 01:20 | VFR | 250° | 4 kt | 10000 meters | 21° | 69° | 14° | 57° | 64% | 1018 mb | 2.582 ft | |||
| 05-Sep | 00:20 | VFR | 230° | 7 kt | 10000 meters | 22° | 71° | 14° | 57° | 60% | 1017 mb | 2.732 ft | |||
| 04-Sep | 23:20 | VFR | 230° | 8 kt | 10000 meters | 23° | 73° | 13° | 55° | 53% | 1017 mb | 2.852 ft | |||
| 04-Sep | 22:20 | VFR | 210° | 5 kt | 10000 meters | 23° | 73° | 13° | 55° | 53% | 1017 mb | 2.852 ft | |||
| 04-Sep | 21:20 | VFR | 220° | 4 kt | 10000 meters | 25° | 77° | 12° | 53° | 44% | 1017 mb | 3.092 ft | |||
| 04-Sep | 20:20 | VFR | 240° | 6 kt | 10000 meters | 26° | 78° | 12° | 53° | 42% | 1016 mb | 3.241 ft | |||
| 04-Sep | 19:20 | VFR | 220° | 7 kt | 10000 meters | 28° | 82° | 12° | 53° | 37% | 1015 mb | 3.511 ft |
Anmelden
| Ihr Browser wird nicht unterstützt. aktualisieren Sie Ihren Browser |
